createdAt,value
2022-12-11T00:04:45.239Z,-0.33
2022-12-11T00:09:52.741Z,-0.36
2022-12-11T00:15:03.529Z,-0.38
2022-12-11T00:20:13.340Z,-0.40
2022-12-11T00:25:20.709Z,-0.41
2022-12-11T00:30:28.039Z,-0.40
2022-12-11T00:35:33.768Z,-0.35
2022-12-11T00:40:41.321Z,-0.38
2022-12-11T00:45:50.391Z,-0.41
2022-12-11T00:50:57.618Z,-0.42
2022-12-11T00:56:03.388Z,-0.45
2022-12-11T01:01:13.678Z,-0.48
2022-12-11T01:06:23.019Z,-0.51
2022-12-11T01:11:40.077Z,-0.53
2022-12-11T01:16:48.308Z,-0.55
2022-12-11T01:21:55.984Z,-0.56
2022-12-11T01:32:25.238Z,-0.52
2022-12-11T01:37:32.472Z,-0.51
2022-12-11T01:42:46.781Z,-0.52
2022-12-11T01:47:57.075Z,-0.55
2022-12-11T01:53:08.595Z,-0.57
2022-12-11T01:58:17.942Z,-0.59
2022-12-11T02:03:25.777Z,-0.63
2022-12-11T02:08:37.924Z,-0.66
2022-12-11T02:13:53.875Z,-0.67
2022-12-11T02:19:09.561Z,-0.65
2022-12-11T02:24:49.366Z,-0.67
2022-12-11T02:30:03.186Z,-0.65
2022-12-11T02:35:18.724Z,-0.65
2022-12-11T02:40:31.517Z,-0.66
2022-12-11T02:45:43.167Z,-0.67
2022-12-11T02:50:53.907Z,-0.67
2022-12-11T02:56:09.706Z,-0.69
2022-12-11T03:01:18.222Z,-0.73
2022-12-11T03:06:30.285Z,-0.78
2022-12-11T03:11:41.281Z,-0.83
2022-12-11T03:17:04.000Z,-0.84
2022-12-11T03:22:19.223Z,-0.81
2022-12-11T03:27:36.106Z,-0.81
2022-12-11T03:32:49.486Z,-0.82
2022-12-11T03:37:59.353Z,-0.85
2022-12-11T03:43:09.509Z,-0.88
2022-12-11T03:48:26.216Z,-0.91
2022-12-11T03:53:39.928Z,-0.94
2022-12-11T03:58:47.837Z,-0.96
2022-12-11T04:03:57.973Z,-0.96
2022-12-11T04:09:07.137Z,-1.01
2022-12-11T04:14:35.186Z,-1.04
2022-12-11T04:20:00.529Z,-1.08
2022-12-11T04:25:10.370Z,-1.12
2022-12-11T04:30:21.267Z,-1.16
2022-12-11T04:35:28.888Z,-1.18
2022-12-11T04:40:36.634Z,-1.18
2022-12-11T04:45:44.298Z,-1.18
2022-12-11T04:50:51.860Z,-1.19
2022-12-11T04:55:59.739Z,-1.21
2022-12-11T05:01:12.026Z,-1.23
2022-12-11T05:06:19.757Z,-1.20
2022-12-11T05:11:27.074Z,-1.23
2022-12-11T05:16:34.673Z,-1.22
2022-12-11T05:21:42.848Z,-1.22
2022-12-11T05:26:50.388Z,-1.24
2022-12-11T05:31:57.611Z,-1.23
2022-12-11T05:37:09.626Z,-1.19
2022-12-11T05:42:17.334Z,-1.21
2022-12-11T05:47:22.904Z,-1.26
2022-12-11T05:52:30.316Z,-1.30
2022-12-11T05:57:37.547Z,-1.31
2022-12-11T06:02:43.260Z,-1.38
2022-12-11T06:07:51.797Z,-1.46
2022-12-11T06:12:59.431Z,-1.48
2022-12-11T06:18:07.438Z,-1.49
2022-12-11T06:23:15.524Z,-1.53
2022-12-11T06:28:22.791Z,-1.60
2022-12-11T06:33:28.865Z,-1.65
2022-12-11T06:38:36.754Z,-1.71
2022-12-11T06:43:46.257Z,-1.70
2022-12-11T06:48:53.517Z,-1.64
2022-12-11T06:53:59.045Z,-1.65
2022-12-11T06:59:07.777Z,-1.72
2022-12-11T07:04:17.055Z,-1.75
2022-12-11T07:09:24.866Z,-1.79
2022-12-11T07:14:32.784Z,-1.79
2022-12-11T07:19:40.915Z,-1.75
2022-12-11T07:24:48.920Z,-1.72
2022-12-11T07:29:56.551Z,-1.72
2022-12-11T07:35:03.971Z,-1.71
2022-12-11T07:40:14.318Z,-1.70
2022-12-11T07:45:21.612Z,-1.70
2022-12-11T07:50:27.478Z,-1.71
2022-12-11T07:55:35.108Z,-1.72
2022-12-11T08:00:42.569Z,-1.73
2022-12-11T08:05:51.595Z,-1.77
2022-12-11T08:11:02.244Z,-1.73
2022-12-11T08:16:13.268Z,-1.68
2022-12-11T08:21:22.830Z,-1.64
2022-12-11T08:26:31.615Z,-1.64
2022-12-11T08:31:39.885Z,-1.69
2022-12-11T08:36:47.680Z,-1.74
2022-12-11T08:41:55.149Z,-1.76
2022-12-11T08:47:02.569Z,-1.72
2022-12-11T08:52:08.345Z,-1.75
2022-12-11T08:57:16.477Z,-1.76
2022-12-11T09:02:23.798Z,-1.79
2022-12-11T09:07:31.098Z,-1.88
2022-12-11T09:12:37.125Z,-1.90
2022-12-11T09:17:49.177Z,-1.92
2022-12-11T09:22:56.859Z,-1.93
2022-12-11T09:28:04.223Z,-1.90
2022-12-11T09:33:12.052Z,-1.89
2022-12-11T09:38:20.385Z,-1.92
2022-12-11T09:43:40.975Z,-1.94
2022-12-11T09:48:52.718Z,-1.94
2022-12-11T09:54:04.944Z,-1.94
2022-12-11T09:59:39.297Z,-1.88
2022-12-11T10:04:59.312Z,-1.76
2022-12-11T10:10:18.743Z,-1.70
2022-12-11T10:15:37.074Z,-1.60
2022-12-11T10:20:45.769Z,-1.46
2022-12-11T10:25:59.865Z,-1.40
2022-12-11T10:31:15.182Z,-1.39
2022-12-11T10:36:28.075Z,-1.40
2022-12-11T10:41:40.987Z,-1.40
2022-12-11T10:46:49.968Z,-1.35
2022-12-11T10:52:01.929Z,-1.29
2022-12-11T10:57:11.532Z,-1.28
2022-12-11T11:02:27.065Z,-1.33
2022-12-11T11:07:34.653Z,-1.34
2022-12-11T11:12:47.407Z,-1.41
2022-12-11T11:17:56.905Z,-1.52
2022-12-11T11:23:15.585Z,-1.59
2022-12-11T11:28:26.637Z,-1.55
2022-12-11T11:33:36.730Z,-1.47
2022-12-11T11:38:50.691Z,-1.45
2022-12-11T11:44:00.871Z,-1.45
2022-12-11T11:49:15.373Z,-1.52
2022-12-11T11:54:32.346Z,-1.63
2022-12-11T11:59:47.739Z,-1.67
2022-12-11T12:04:55.593Z,-1.70
2022-12-11T12:10:13.017Z,-1.72
2022-12-11T12:15:30.859Z,-1.70
2022-12-11T12:20:40.201Z,-1.68
2022-12-11T12:26:02.477Z,-1.68
2022-12-11T12:31:24.717Z,-1.64
2022-12-11T12:36:41.241Z,-1.58
2022-12-11T12:42:12.953Z,-1.57
2022-12-11T12:47:21.629Z,-1.64
2022-12-11T12:52:33.249Z,-1.76
2022-12-11T12:57:43.934Z,-1.80
2022-12-11T13:02:54.005Z,-1.82
2022-12-11T13:08:03.970Z,-1.90
2022-12-11T13:13:36.447Z,-1.95
2022-12-11T13:18:47.625Z,-1.98
2022-12-11T13:23:55.199Z,-1.99
2022-12-11T13:29:04.444Z,-1.99
2022-12-11T13:34:22.226Z,-2.01
2022-12-11T13:39:31.766Z,-2.04
2022-12-11T13:44:46.066Z,-2.09
2022-12-11T13:58:00.643Z,-2.23
2022-12-11T14:03:09.406Z,-2.28
2022-12-11T14:08:25.728Z,-2.32
2022-12-11T14:13:37.021Z,-2.38
2022-12-11T14:18:45.293Z,-2.44
2022-12-11T14:23:57.736Z,-2.47
2022-12-11T14:29:06.282Z,-2.51
2022-12-11T14:34:19.589Z,-2.54
2022-12-11T14:39:31.328Z,-2.60
2022-12-11T14:44:50.802Z,-2.64
2022-12-11T14:50:04.169Z,-2.66
2022-12-11T14:55:17.522Z,-2.68
2022-12-11T15:00:30.785Z,-2.70
2022-12-11T15:05:49.716Z,-2.73
2022-12-11T15:11:09.753Z,-2.76
2022-12-11T15:16:17.665Z,-2.81
2022-12-11T15:21:32.716Z,-2.88
2022-12-11T15:26:46.052Z,-2.94
2022-12-11T15:32:02.568Z,-2.98
2022-12-11T15:37:22.078Z,-3.02
2022-12-11T15:42:32.532Z,-3.06
2022-12-11T15:47:39.940Z,-3.07
2022-12-11T15:52:47.664Z,-3.08
2022-12-11T15:57:57.255Z,-3.10
2022-12-11T16:03:04.813Z,-3.12
2022-12-11T16:08:15.346Z,-3.14
2022-12-11T16:13:23.037Z,-3.18
2022-12-11T16:18:30.413Z,-3.22
2022-12-11T16:23:37.596Z,-3.22
2022-12-11T16:28:43.772Z,-3.23
2022-12-11T16:33:51.226Z,-3.23
2022-12-11T16:38:58.422Z,-3.22
2022-12-11T16:44:04.326Z,-3.21
2022-12-11T16:49:11.653Z,-3.21
2022-12-11T16:54:17.519Z,-3.20
2022-12-11T16:59:24.787Z,-3.22
2022-12-11T17:04:32.839Z,-3.23
2022-12-11T17:09:40.269Z,-3.24
2022-12-11T17:14:47.770Z,-3.23
2022-12-11T17:19:55.369Z,-3.24
2022-12-11T17:25:02.867Z,-3.26
2022-12-11T17:30:13.620Z,-3.27
2022-12-11T17:35:21.287Z,-3.28
2022-12-11T17:40:28.763Z,-3.29
2022-12-11T17:45:39.165Z,-3.31
2022-12-11T17:50:48.654Z,-3.33
2022-12-11T17:55:57.140Z,-3.36
2022-12-11T18:01:09.960Z,-3.38
2022-12-11T18:06:18.592Z,-3.39
2022-12-11T18:11:26.934Z,-3.40
2022-12-11T18:16:37.007Z,-3.40
2022-12-11T18:21:45.973Z,-3.35
2022-12-11T18:26:53.218Z,-3.32
2022-12-11T18:31:59.140Z,-3.31
2022-12-11T18:37:07.220Z,-3.29
2022-12-11T18:47:42.838Z,-3.28
2022-12-11T18:52:53.492Z,-3.30
2022-12-11T18:58:00.744Z,-3.33
2022-12-11T19:03:06.778Z,-3.35
2022-12-11T19:08:16.540Z,-3.37
2022-12-11T19:13:23.935Z,-3.41
2022-12-11T19:18:31.155Z,-3.46
2022-12-11T19:23:39.042Z,-3.49
2022-12-11T19:28:46.864Z,-3.53
2022-12-11T19:33:54.177Z,-3.54
2022-12-11T19:39:05.058Z,-3.51
2022-12-11T19:44:17.363Z,-3.49
2022-12-11T19:49:24.665Z,-3.51
2022-12-11T19:54:32.690Z,-3.53
2022-12-11T19:59:39.973Z,-3.54
2022-12-11T20:04:45.637Z,-3.52
2022-12-11T20:09:53.098Z,-3.54
2022-12-11T20:15:00.509Z,-3.56
2022-12-11T20:20:10.039Z,-3.58
2022-12-11T20:25:17.634Z,-3.57
2022-12-11T20:30:26.156Z,-3.56
2022-12-11T20:35:34.799Z,-3.54
2022-12-11T20:40:42.607Z,-3.55
2022-12-11T20:45:52.206Z,-3.59
2022-12-11T20:51:02.685Z,-3.61
2022-12-11T20:56:15.321Z,-3.62
2022-12-11T21:01:24.704Z,-3.62
2022-12-11T21:06:35.111Z,-3.64
2022-12-11T21:11:43.337Z,-3.68
2022-12-11T21:20:24.629Z,-3.66
2022-12-11T21:25:32.045Z,-3.71
2022-12-11T21:30:41.458Z,-3.76
2022-12-11T21:35:57.809Z,-3.79
2022-12-11T21:41:15.794Z,-3.80
2022-12-11T21:46:25.883Z,-3.82
2022-12-11T21:51:39.372Z,-3.84
2022-12-11T21:56:50.122Z,-3.84
2022-12-11T22:01:57.898Z,-3.84
2022-12-11T22:07:05.412Z,-3.83
2022-12-11T22:12:11.358Z,-3.84
2022-12-11T22:17:19.383Z,-3.84
2022-12-11T22:22:28.016Z,-3.85
2022-12-11T22:27:36.028Z,-3.87
2022-12-11T22:32:44.025Z,-3.89
2022-12-11T22:37:52.644Z,-3.91
2022-12-11T22:43:00.281Z,-3.89
2022-12-11T22:48:09.324Z,-3.89
2022-12-11T22:53:17.337Z,-3.91
2022-12-11T22:58:24.847Z,-3.93
2022-12-11T23:03:32.513Z,-3.92
2022-12-11T23:08:40.431Z,-3.91
2022-12-11T23:13:48.083Z,-3.92
2022-12-11T23:18:56.367Z,-3.96
2022-12-11T23:24:05.459Z,-3.94
2022-12-11T23:29:12.967Z,-3.94
2022-12-11T23:34:20.130Z,-3.97
2022-12-11T23:39:27.658Z,-3.99
2022-12-11T23:44:34.873Z,-4.00
2022-12-11T23:49:42.923Z,-3.94
2022-12-11T23:54:50.230Z,-3.86
2022-12-11T23:59:55.765Z,-3.81
